Terminal Aerodrome Forecast
Issued by NWS

Home | Current Version | Previous Version | Text Only | Print | Product List | Glossary On
Versions: 1 2 3 4 5 6 7 8 9 10 11 12 13 14 15 16 17 18 19 20 21 22 23 24 25 26 27 28 29 30 31 32 33 34 35 36 37 38 39 40 41 42 43 44 45 46 47
000
FTUS45 KBOU 082329
TAFBJC
TAF
KBJC 082329Z 0900/0924 VRB05KT P6SM SCT070 BKN110
     FM090300 33005KT P6SM FEW070 SCT110
     FM091700 29010KT P6SM FEW080 SCT120
     FM092200 34009KT P6SM VCTS SCT080CB BKN120=

USA.gov is the U.S. government's official web portal to all federal, state and local government web resources and services.